Time;durP1;ratioP1;P1;durP2;ratioP2;P2;SDS_P1;SDS_P2;PMS_P1;PMS_P2;Temp;Humidity;BMP_temperature;BMP_pressure;BME280_temperature;BME280_humidity;BME280_pressure;Samples;Min_cycle;Max_cycle;Signal;HPM_P1;HPM_P2
2023/03/24 00:02:27;;;;;;;;;;;12.50;99.90;;;;;;4904007;29;19994;-83
2023/03/24 00:04:57;;;;;;;;;;;12.50;99.90;;;;;;4904228;29;19927;-81
2023/03/24 00:07:24;;;;;;;;;;;12.50;99.90;;;;;;4905205;29;19927;-81
2023/03/24 00:09:51;;;;;;;;;;;12.50;99.90;;;;;;4923263;29;19927;-82
2023/03/24 00:12:18;;;;;;;;;;;12.40;99.90;;;;;;4907331;29;19927;-83
2023/03/24 00:14:46;;;;;;;;;;;12.40;99.90;;;;;;4922513;29;20029;-83
2023/03/24 00:17:16;;;;;;;;;;;12.40;99.90;;;;;;4927401;29;20375;-84
2023/03/24 00:19:44;;;;;;;;;;;12.40;99.90;;;;;;4909063;29;19943;-84
2023/03/24 00:22:13;;;;;;;;;;;12.40;99.90;;;;;;4908655;29;19927;-84
2023/03/24 00:24:40;;;;;;;;;;;12.40;99.90;;;;;;4906090;29;19947;-84
2023/03/24 00:27:07;;;;;;;;;;;12.40;99.90;;;;;;4921956;29;19926;-83
2023/03/24 00:29:35;;;;;;;;;;;12.20;99.90;;;;;;4904505;29;19935;-83
2023/03/24 00:32:02;;;;;;;;;;;12.30;99.90;;;;;;4888374;29;20295;-83
2023/03/24 00:34:28;;;;;;;;;;;12.30;99.90;;;;;;4905755;29;19927;-81
2023/03/24 00:36:55;;;;;;;;;;;12.30;99.90;;;;;;4888850;29;19927;-83
2023/03/24 00:39:24;;;;;;;;;;;12.30;99.90;;;;;;4889845;29;19927;-84
2023/03/24 00:41:51;;;;;;;;;;;12.30;99.90;;;;;;4903868;29;19933;-83
2023/03/24 00:44:18;;;;;;;;;;;12.30;99.90;;;;;;4923189;29;19923;-83
2023/03/24 00:46:54;;;;;;;;;;;12.30;99.90;;;;;;4906166;29;20093;-83
2023/03/24 00:49:40;;;;;;;;;;;12.20;99.90;;;;;;4905300;29;19947;-81
2023/03/24 00:52:09;;;;;;;;;;;12.20;99.90;;;;;;4909242;29;19931;-83
2023/03/24 00:54:38;;;;;;;;;;;12.20;99.90;;;;;;4931078;29;19923;-82
2023/03/24 00:57:06;;;;;;;;;;;12.20;99.90;;;;;;4900216;29;20025;-81
2023/03/24 00:59:36;;;;;;;;;;;12.20;99.90;;;;;;4900307;29;19927;-83
2023/03/24 01:02:04;;;;;;;;;;;12.30;99.90;;;;;;4905902;29;19934;-82
2023/03/24 01:04:30;;;;;;;;;;;12.30;99.90;;;;;;4907393;29;19959;-82
2023/03/24 01:06:58;;;;;;;;;;;12.30;99.90;;;;;;4908395;29;19990;-83
2023/03/24 01:09:25;;;;;;;;;;;12.30;99.90;;;;;;4905355;29;19923;-82
2023/03/24 01:11:53;;;;;;;;;;;12.30;99.90;;;;;;4922088;29;19927;-83
2023/03/24 01:14:20;;;;;;;;;;;12.30;99.90;;;;;;4920495;29;19951;-83
2023/03/24 01:16:49;;;;;;;;;;;12.30;99.90;;;;;;4908406;29;19926;-83
2023/03/24 01:19:17;;;;;;;;;;;12.30;99.90;;;;;;4904461;29;19934;-82
2023/03/24 01:21:44;;;;;;;;;;;12.30;99.90;;;;;;4915100;28;20387;-82
2023/03/24 01:24:12;;;;;;;;;;;12.30;99.90;;;;;;4903284;29;20375;-83
2023/03/24 01:26:39;;;;;;;;;;;12.30;99.90;;;;;;4913049;29;19934;-82
2023/03/24 01:29:07;;;;;;;;;;;12.30;99.90;;;;;;4903430;29;19927;-83
2023/03/24 01:31:34;;;;;;;;;;;12.30;99.90;;;;;;4902660;29;19927;-83
2023/03/24 01:34:01;;;;;;;;;;;12.40;99.90;;;;;;4915401;29;19995;-83
2023/03/24 01:36:28;;;;;;;;;;;12.40;99.90;;;;;;4898139;29;19926;-81
2023/03/24 01:38:57;;;;;;;;;;;12.40;99.90;;;;;;4902620;29;19958;-82
2023/03/24 01:41:24;;;;;;;;;;;12.40;99.90;;;;;;4901446;29;20022;-83
2023/03/24 01:43:51;;;;;;;;;;;12.40;99.90;;;;;;4910646;29;19942;-83
2023/03/24 01:46:20;;;;;;;;;;;12.40;99.90;;;;;;4912567;29;19938;-83
2023/03/24 01:48:50;;;;;;;;;;;12.40;99.90;;;;;;4905233;29;20409;-83
2023/03/24 01:51:18;;;;;;;;;;;12.50;99.90;;;;;;4912662;29;19930;-83
2023/03/24 01:53:47;;;;;;;;;;;12.40;99.90;;;;;;4926293;29;19911;-82
2023/03/24 01:56:14;;;;;;;;;;;12.40;99.90;;;;;;4911422;29;19927;-81
2023/03/24 01:58:46;;;;;;;;;;;12.40;99.90;;;;;;4925203;29;19942;-81
2023/03/24 02:01:38;;;;;;;;;;;12.50;99.90;;;;;;4927316;29;20311;-81
2023/03/24 02:04:28;;;;;;;;;;;12.50;99.90;;;;;;4926933;29;19923;-82
2023/03/24 02:07:04;;;;;;;;;;;12.40;99.90;;;;;;4927595;29;19996;-83
2023/03/24 02:09:31;;;;;;;;;;;12.40;99.90;;;;;;4921295;29;19927;-83
2023/03/24 02:11:58;;;;;;;;;;;12.40;99.90;;;;;;4911984;29;19934;-82
2023/03/24 02:14:25;;;;;;;;;;;12.40;99.90;;;;;;4892713;29;19927;-82
2023/03/24 02:17:09;;;;;;;;;;;12.40;99.90;;;;;;4891967;29;19949;-82
2023/03/24 02:19:51;;;;;;;;;;;12.40;99.90;;;;;;4891866;29;19955;-81
2023/03/24 02:22:39;;;;;;;;;;;12.40;99.90;;;;;;4915072;29;19935;-80
2023/03/24 02:25:20;;;;;;;;;;;12.30;99.90;;;;;;4884629;29;19923;-82
2023/03/24 02:27:56;;;;;;;;;;;12.30;99.90;;;;;;4918459;29;19934;-82
2023/03/24 02:30:30;;;;;;;;;;;12.30;99.90;;;;;;4925863;29;19934;-82
2023/03/24 02:33:30;;;;;;;;;;;12.30;99.90;;;;;;4908733;29;19935;-84
2023/03/24 02:36:16;;;;;;;;;;;12.30;99.90;;;;;;4869989;29;19934;-83
2023/03/24 02:38:52;;;;;;;;;;;12.40;99.90;;;;;;4868049;29;19969;-83
2023/03/24 02:41:23;;;;;;;;;;;12.40;99.90;;;;;;4889652;29;19931;-81
2023/03/24 02:47:22;;;;;;;;;;;12.40;99.90;;;;;;4927654;29;20378;-81
2023/03/24 02:49:55;;;;;;;;;;;12.50;99.90;;;;;;4938779;29;19927;-81
2023/03/24 02:52:24;;;;;;;;;;;12.50;99.90;;;;;;4888505;29;19934;-81
2023/03/24 02:54:57;;;;;;;;;;;12.50;99.90;;;;;;4917526;29;19923;-82
2023/03/24 02:57:30;;;;;;;;;;;12.60;99.90;;;;;;4903818;29;19933;-81
2023/03/24 03:00:20;;;;;;;;;;;12.60;99.90;;;;;;4917881;29;20338;-83
2023/03/24 03:03:06;;;;;;;;;;;12.70;99.90;;;;;;4924849;29;19911;-83
2023/03/24 03:05:36;;;;;;;;;;;12.70;99.90;;;;;;4913846;29;19923;-83
2023/03/24 03:08:05;;;;;;;;;;;12.80;99.90;;;;;;4907474;29;19923;-83
2023/03/24 03:10:34;;;;;;;;;;;12.90;99.90;;;;;;4909371;29;19927;-83
2023/03/24 03:13:05;;;;;;;;;;;13.00;99.90;;;;;;4913623;29;20018;-82
2023/03/24 03:15:34;;;;;;;;;;;13.00;99.90;;;;;;4905932;29;19923;-82
2023/03/24 03:18:06;;;;;;;;;;;13.10;99.90;;;;;;4904009;29;19927;-82
2023/03/24 03:20:36;;;;;;;;;;;13.10;99.90;;;;;;4921735;29;19933;-82
2023/03/24 03:23:04;;;;;;;;;;;13.20;99.90;;;;;;4923200;29;19934;-83
2023/03/24 03:25:34;;;;;;;;;;;13.20;99.90;;;;;;4921467;29;19914;-83
2023/03/24 03:28:04;;;;;;;;;;;13.30;99.90;;;;;;4923615;29;20500;-83
2023/03/24 03:30:36;;;;;;;;;;;13.30;99.90;;;;;;4923478;29;20012;-84
2023/03/24 03:33:06;;;;;;;;;;;13.30;99.90;;;;;;4919745;29;19927;-83
2023/03/24 03:35:35;;;;;;;;;;;13.40;99.90;;;;;;4913037;29;19927;-83
2023/03/24 03:38:07;;;;;;;;;;;13.50;99.90;;;;;;4914884;29;19927;-84
2023/03/24 03:40:36;;;;;;;;;;;13.60;99.90;;;;;;4918215;29;19970;-83
2023/03/24 03:43:18;;;;;;;;;;;13.60;99.90;;;;;;4922112;29;19934;-83
2023/03/24 03:45:46;;;;;;;;;;;13.70;99.90;;;;;;4916506;29;19923;-79
2023/03/24 03:48:13;;;;;;;;;;;13.70;99.90;;;;;;4905724;29;19923;-81
2023/03/24 03:50:41;;;;;;;;;;;13.80;99.90;;;;;;4898973;29;19990;-82
2023/03/24 03:53:09;;;;;;;;;;;13.80;99.90;;;;;;4904430;29;19927;-81
2023/03/24 03:55:37;;;;;;;;;;;13.90;99.90;;;;;;4917363;29;19927;-80
2023/03/24 03:58:04;;;;;;;;;;;13.80;99.90;;;;;;4893329;29;19951;-80
2023/03/24 04:00:46;;;;;;;;;;;13.80;99.90;;;;;;4904891;29;20017;-80
2023/03/24 04:03:58;;;;;;;;;;;13.80;99.90;;;;;;4917745;29;19927;-80
2023/03/24 04:06:43;;;;;;;;;;;13.60;99.90;;;;;;4881737;29;20634;-79
2023/03/24 04:09:16;;;;;;;;;;;13.60;99.90;;;;;;4878805;29;19923;-79
2023/03/24 04:11:52;;;;;;;;;;;13.60;99.90;;;;;;4896036;29;20010;-79
2023/03/24 04:14:55;;;;;;;;;;;13.60;99.90;;;;;;4898314;29;20409;-80
2023/03/24 04:18:10;;;;;;;;;;;14.80;99.90;;;;;;4897705;29;20390;-80
2023/03/24 04:21:01;;;;;;;;;;;13.40;99.90;;;;;;4900224;29;19936;-80
2023/03/24 04:23:33;;;;;;;;;;;13.30;99.90;;;;;;4919189;29;20308;-80
2023/03/24 04:26:04;;;;;;;;;;;13.30;99.90;;;;;;4908678;29;19931;-80
2023/03/24 04:28:36;;;;;;;;;;;13.20;99.90;;;;;;4904887;29;20382;-80
2023/03/24 04:31:06;;;;;;;;;;;13.10;99.90;;;;;;4905706;29;19927;-80
2023/03/24 04:33:39;;;;;;;;;;;13.10;99.90;;;;;;4901322;29;20421;-80
2023/03/24 04:36:17;;;;;;;;;;;13.10;99.90;;;;;;4909440;29;20415;-81
2023/03/24 04:39:10;;;;;;;;;;;13.10;99.90;;;;;;4917122;29;19927;-81
2023/03/24 04:41:46;;;;;;;;;;;13.00;99.90;;;;;;4898382;29;19931;-80
2023/03/24 04:44:21;;;;;;;;;;;13.00;99.90;;;;;;4916962;29;19982;-80
2023/03/24 04:47:08;;;;;;;;;;;12.90;99.90;;;;;;4911041;29;19942;-80
2023/03/24 04:49:39;;;;;;;;;;;12.90;99.90;;;;;;4902135;29;19927;-81
2023/03/24 04:52:06;;;;;;;;;;;12.80;99.90;;;;;;4911300;29;20042;-79
2023/03/24 04:54:34;;;;;;;;;;;12.80;99.90;;;;;;4900238;29;20336;-81
2023/03/24 04:57:06;;;;;;;;;;;12.80;99.90;;;;;;4912540;29;20378;-81
2023/03/24 04:59:41;;;;;;;;;;;12.80;99.90;;;;;;4901086;29;19934;-80
2023/03/24 05:02:10;;;;;;;;;;;12.90;99.90;;;;;;4903007;29;19994;-82
2023/03/24 05:05:01;;;;;;;;;;;12.90;99.90;;;;;;4911211;29;20381;-81
2023/03/24 05:07:35;;;;;;;;;;;12.90;99.90;;;;;;4901784;29;20351;-81
2023/03/24 05:10:08;;;;;;;;;;;13.00;99.90;;;;;;4901489;29;19930;-82
2023/03/24 05:12:41;;;;;;;;;;;13.00;99.90;;;;;;4910593;29;19923;-81
2023/03/24 05:15:28;;;;;;;;;;;13.00;99.90;;;;;;4905447;29;19955;-80
2023/03/24 05:18:15;;;;;;;;;;;13.00;99.90;;;;;;4912078;29;20006;-79
2023/03/24 05:20:44;;;;;;;;;;;12.90;99.90;;;;;;4899977;29;19938;-83
2023/03/24 05:23:17;;;;;;;;;;;12.80;99.90;;;;;;4923176;29;19934;-83
2023/03/24 05:25:46;;;;;;;;;;;12.60;99.90;;;;;;4909554;29;20013;-83
2023/03/24 05:28:15;;;;;;;;;;;12.50;99.90;;;;;;4909635;29;19926;-82
2023/03/24 05:30:43;;;;;;;;;;;12.30;99.90;;;;;;4923962;29;20009;-83
2023/03/24 05:33:28;;;;;;;;;;;12.20;99.90;;;;;;4929528;29;20004;-82
2023/03/24 05:35:58;;;;;;;;;;;12.10;99.90;;;;;;4916188;29;19933;-83
2023/03/24 05:38:27;;;;;;;;;;;12.00;99.90;;;;;;4923557;29;20028;-79
2023/03/24 05:40:58;;;;;;;;;;;11.90;99.90;;;;;;4924795;29;19956;-79
2023/03/24 05:43:35;;;;;;;;;;;11.80;99.90;;;;;;4908855;29;19927;-78
2023/03/24 05:46:14;;;;;;;;;;;11.80;99.90;;;;;;4921526;29;19954;-79
2023/03/24 05:48:59;;;;;;;;;;;11.70;99.90;;;;;;4912572;29;19948;-79
2023/03/24 05:51:33;;;;;;;;;;;11.70;99.90;;;;;;4912795;29;19923;-78
2023/03/24 05:54:14;;;;;;;;;;;11.60;99.90;;;;;;4909645;29;20017;-78
2023/03/24 05:56:54;;;;;;;;;;;11.60;99.90;;;;;;4915313;29;20002;-80
2023/03/24 05:59:32;;;;;;;;;;;11.50;99.90;;;;;;4909226;29;20021;-84
2023/03/24 06:02:29;;;;;;;;;;;11.40;99.90;;;;;;4925227;29;19946;-83
2023/03/24 06:05:04;;;;;;;;;;;11.40;99.90;;;;;;4906373;28;19911;-82
2023/03/24 06:07:32;;;;;;;;;;;11.40;99.90;;;;;;4907123;29;19926;-83
2023/03/24 06:10:01;;;;;;;;;;;13.00;99.90;;;;;;4904489;29;20422;-80
2023/03/24 06:12:31;;;;;;;;;;;11.40;99.90;;;;;;4917260;29;19934;-81
2023/03/24 06:15:02;;;;;;;;;;;11.40;99.90;;;;;;4905300;29;19931;-82
2023/03/24 06:17:31;;;;;;;;;;;11.40;99.90;;;;;;4902877;29;20507;-83
2023/03/24 06:20:10;;;;;;;;;;;11.40;99.90;;;;;;4923539;29;19926;-83
2023/03/24 06:22:59;;;;;;;;;;;11.40;99.90;;;;;;4908063;29;20004;-82
2023/03/24 06:25:32;;;;;;;;;;;11.30;99.90;;;;;;4900189;29;20025;-82
2023/03/24 06:28:16;;;;;;;;;;;11.40;99.90;;;;;;4910848;29;19923;-81
2023/03/24 06:30:45;;;;;;;;;;;11.40;99.90;;;;;;4931037;29;19962;-83
2023/03/24 06:33:15;;;;;;;;;;;11.60;99.90;;;;;;4918187;29;19927;-83
2023/03/24 06:35:44;;;;;;;;;;;11.70;99.90;;;;;;4904126;29;20405;-83
2023/03/24 06:38:16;;;;;;;;;;;12.00;99.90;;;;;;4908509;29;19991;-82
2023/03/24 06:40:45;;;;;;;;;;;12.70;99.90;;;;;;4902300;29;20382;-82
2023/03/24 06:43:12;;;;;;;;;;;13.20;99.90;;;;;;4910587;29;20307;-82
2023/03/24 06:45:43;;;;;;;;;;;13.10;99.90;;;;;;4909344;29;20402;-82
2023/03/24 06:48:17;;;;;;;;;;;13.20;99.90;;;;;;4916237;28;20534;-82
2023/03/24 06:50:45;;;;;;;;;;;13.90;99.90;;;;;;4912294;29;19934;-82
2023/03/24 06:53:13;;;;;;;;;;;14.60;99.90;;;;;;4910079;29;19950;-82
2023/03/24 06:55:42;;;;;;;;;;;15.50;99.90;;;;;;4924921;28;19927;-82
2023/03/24 06:58:11;;;;;;;;;;;16.30;99.90;;;;;;4926185;29;19927;-83
2023/03/24 07:00:52;;;;;;;;;;;16.40;99.90;;;;;;4925851;29;19951;-82
2023/03/24 07:03:42;;;;;;;;;;;15.90;99.90;;;;;;4915998;29;19930;-81
2023/03/24 07:06:25;;;;;;;;;;;16.40;99.90;;;;;;4895724;29;19958;-81
2023/03/24 07:08:56;;;;;;;;;;;17.00;99.90;;;;;;4906368;29;19927;-84
2023/03/24 07:11:27;;;;;;;;;;;17.50;99.90;;;;;;4931086;29;19915;-83
2023/03/24 07:13:57;;;;;;;;;;;17.60;99.90;;;;;;4919739;29;19969;-82
2023/03/24 07:16:27;;;;;;;;;;;18.40;99.90;;;;;;4903905;29;19930;-81
2023/03/24 07:19:04;;;;;;;;;;;19.00;99.90;;;;;;4906715;29;19946;-79
2023/03/24 07:21:35;;;;;;;;;;;19.60;99.90;;;;;;4892389;29;19923;-83
2023/03/24 07:24:04;;;;;;;;;;;20.50;99.90;;;;;;4908815;29;19927;-83
2023/03/24 07:26:42;;;;;;;;;;;21.00;99.90;;;;;;4908684;29;19927;-83
2023/03/24 07:29:18;;;;;;;;;;;21.50;99.90;;;;;;4907685;29;19918;-84
2023/03/24 07:32:18;;;;;;;;;;;22.00;99.90;;;;;;4906475;29;19927;-82
2023/03/24 07:34:47;;;;;;;;;;;22.70;99.90;;;;;;4905987;29;19930;-84
2023/03/24 07:37:14;;;;;;;;;;;23.00;99.90;;;;;;4905289;29;19927;-83
2023/03/24 07:39:44;;;;;;;;;;;23.30;99.90;;;;;;4906301;29;19953;-83
2023/03/24 07:42:13;;;;;;;;;;;23.60;99.90;;;;;;4891631;29;19934;-84
2023/03/24 07:45:00;;;;;;;;;;;23.80;99.90;;;;;;4909101;29;19927;-83
2023/03/24 07:47:27;;;;;;;;;;;23.50;99.90;;;;;;4908019;29;19923;-84
2023/03/24 07:49:57;;;;;;;;;;;23.80;99.90;;;;;;4892295;29;19927;-83
2023/03/24 07:52:24;;;;;;;;;;;24.20;99.90;;;;;;4905865;29;19933;-85
2023/03/24 07:54:53;;;;;;;;;;;24.00;99.90;;;;;;4907309;29;19928;-82
2023/03/24 07:57:38;;;;;;;;;;;23.80;99.90;;;;;;4904804;29;20018;-82
2023/03/24 08:00:13;;;;;;;;;;;23.60;99.90;;;;;;4915167;29;19935;-82
2023/03/24 08:02:48;;;;;;;;;;;23.60;99.90;;;;;;4922415;29;19930;-82
2023/03/24 08:05:35;;;;;;;;;;;22.80;99.90;;;;;;4913348;29;19948;-84
2023/03/24 08:08:16;;;;;;;;;;;22.70;99.90;;;;;;4912378;29;20030;-82
2023/03/24 08:10:44;;;;;;;;;;;22.80;99.90;;;;;;4912346;29;19934;-82
2023/03/24 08:13:13;;;;;;;;;;;23.00;99.90;;;;;;4909139;29;20611;-82
2023/03/24 08:15:40;;;;;;;;;;;23.30;99.90;;;;;;4905992;29;19923;-81
2023/03/24 08:18:07;;;;;;;;;;;23.20;99.90;;;;;;4913682;29;19927;-82
2023/03/24 08:20:34;;;;;;;;;;;23.10;99.90;;;;;;4890842;29;19923;-81
2023/03/24 08:23:03;;;;;;;;;;;22.50;99.90;;;;;;4907670;29;19919;-82
2023/03/24 08:25:30;;;;;;;;;;;20.90;99.90;;;;;;4919492;29;20002;-80
2023/03/24 08:27:58;;;;;;;;;;;20.90;99.90;;;;;;4904300;29;19923;-81
2023/03/24 08:30:26;;;;;;;;;;;20.20;99.90;;;;;;4908065;29;19987;-81
2023/03/24 08:32:54;;;;;;;;;;;19.60;99.90;;;;;;4900126;29;19928;-82
2023/03/24 08:35:25;;;;;;;;;;;18.80;99.90;;;;;;4901840;29;19924;-81
2023/03/24 08:37:52;;;;;;;;;;;18.90;99.90;;;;;;4902096;29;19962;-82
2023/03/24 08:40:22;;;;;;;;;;;18.60;99.90;;;;;;4901858;29;19924;-82
2023/03/24 08:42:49;;;;;;;;;;;18.60;99.90;;;;;;4902838;29;19958;-82
2023/03/24 08:45:19;;;;;;;;;;;19.10;99.90;;;;;;4901611;29;20383;-81
2023/03/24 08:47:50;;;;;;;;;;;19.20;99.90;;;;;;4902021;29;20328;-83
2023/03/24 08:50:18;;;;;;;;;;;19.40;99.90;;;;;;4901696;29;20394;-83
2023/03/24 08:52:46;;;;;;;;;;;19.80;99.90;;;;;;4901876;29;19923;-82
2023/03/24 08:55:14;;;;;;;;;;;20.40;99.90;;;;;;4903220;29;19927;-83
2023/03/24 08:57:42;;;;;;;;;;;20.40;99.90;;;;;;4904981;29;19934;-81
2023/03/24 09:00:13;;;;;;;;;;;20.60;99.90;;;;;;4922126;29;19911;-82
2023/03/24 09:02:40;;;;;;;;;;;20.70;99.90;;;;;;4915183;29;19933;-82
2023/03/24 09:05:10;;;;;;;;;;;20.70;99.90;;;;;;4912280;29;20025;-83
2023/03/24 09:07:37;;;;;;;;;;;20.50;99.90;;;;;;4894161;29;19983;-82
2023/03/24 09:10:05;;;;;;;;;;;20.20;99.90;;;;;;4889309;29;19934;-82
2023/03/24 09:12:33;;;;;;;;;;;20.20;99.90;;;;;;4915232;29;19923;-82
2023/03/24 09:15:01;;;;;;;;;;;20.20;99.90;;;;;;4922892;29;19933;-82
2023/03/24 09:17:30;;;;;;;;;;;20.30;99.90;;;;;;4915710;29;19930;-84
2023/03/24 09:19:59;;;;;;;;;;;20.90;99.90;;;;;;4907658;29;19923;-85
2023/03/24 09:22:28;;;;;;;;;;;20.20;99.90;;;;;;4907494;29;19922;-83
2023/03/24 09:24:56;;;;;;;;;;;20.00;99.90;;;;;;4919712;29;20029;-83
2023/03/24 09:27:23;;;;;;;;;;;19.90;99.90;;;;;;4902250;29;19923;-83
2023/03/24 09:29:52;;;;;;;;;;;19.70;99.90;;;;;;4935459;29;19931;-83
2023/03/24 09:32:20;;;;;;;;;;;19.30;99.90;;;;;;4902673;29;20010;-82
2023/03/24 09:34:47;;;;;;;;;;;18.90;99.90;;;;;;4903469;29;19927;-83
2023/03/24 09:37:16;;;;;;;;;;;18.70;99.90;;;;;;4919882;29;19927;-83
2023/03/24 09:39:45;;;;;;;;;;;18.50;99.90;;;;;;4920275;29;19966;-82
2023/03/24 09:42:18;;;;;;;;;;;18.20;99.90;;;;;;4919548;29;19934;-84
2023/03/24 09:44:46;;;;;;;;;;;18.20;99.90;;;;;;4920724;29;19931;-84
2023/03/24 09:47:16;;;;;;;;;;;18.20;99.90;;;;;;4920941;29;19923;-83
2023/03/24 09:49:55;;;;;;;;;;;18.00;99.90;;;;;;4922509;29;19923;-83
2023/03/24 09:52:27;;;;;;;;;;;17.60;99.90;;;;;;4923381;29;19923;-83
2023/03/24 09:55:00;;;;;;;;;;;17.30;99.90;;;;;;4925787;29;20075;-83
2023/03/24 09:57:36;;;;;;;;;;;17.10;99.90;;;;;;4925071;29;20026;-83
2023/03/24 10:00:19;;;;;;;;;;;16.80;99.90;;;;;;4924746;29;19923;-83
2023/03/24 10:02:48;;;;;;;;;;;16.30;99.90;;;;;;4922106;29;19926;-83
2023/03/24 10:05:17;;;;;;;;;;;15.80;99.90;;;;;;4925687;29;19934;-84
2023/03/24 10:07:51;;;;;;;;;;;15.80;99.90;;;;;;4929091;29;19954;-84
2023/03/24 10:10:21;;;;;;;;;;;15.70;99.90;;;;;;4927633;29;19923;-84
2023/03/24 10:12:50;;;;;;;;;;;15.60;99.90;;;;;;4909957;29;20017;-85
2023/03/24 10:15:25;;;;;;;;;;;15.60;99.90;;;;;;4916661;29;20216;-83
2023/03/24 10:17:56;;;;;;;;;;;15.60;99.90;;;;;;4914514;29;19978;-85
2023/03/24 10:20:31;;;;;;;;;;;16.00;99.90;;;;;;4919217;29;19974;-83
2023/03/24 10:23:01;;;;;;;;;;;16.30;99.90;;;;;;4929756;29;20032;-84
2023/03/24 10:25:37;;;;;;;;;;;16.50;99.90;;;;;;4929871;29;20337;-82
2023/03/24 10:28:10;;;;;;;;;;;16.50;99.90;;;;;;4926300;29;19924;-83
2023/03/24 10:30:57;;;;;;;;;;;17.30;99.90;;;;;;4936978;29;19934;-82
2023/03/24 10:33:27;;;;;;;;;;;17.00;99.90;;;;;;4912977;29;20381;-82
2023/03/24 10:35:59;;;;;;;;;;;17.20;99.90;;;;;;4913291;29;19948;-82
2023/03/24 10:38:32;;;;;;;;;;;17.30;99.90;;;;;;4913482;29;19927;-83
2023/03/24 10:41:01;;;;;;;;;;;17.50;99.90;;;;;;4913642;29;19934;-83
2023/03/24 10:43:32;;;;;;;;;;;17.80;99.90;;;;;;4915499;29;19933;-83
2023/03/24 10:46:01;;;;;;;;;;;18.20;99.90;;;;;;4924691;29;19938;-83
2023/03/24 10:48:50;;;;;;;;;;;18.30;99.90;;;;;;4909231;29;19927;-83
2023/03/24 10:51:25;;;;;;;;;;;18.30;99.90;;;;;;4927135;29;19937;-83
2023/03/24 10:54:10;;;;;;;;;;;18.30;99.90;;;;;;4928815;29;19911;-84
2023/03/24 10:56:39;;;;;;;;;;;18.20;99.90;;;;;;4921943;29;20011;-83
2023/03/24 10:59:18;;;;;;;;;;;17.60;99.90;;;;;;4927223;29;19948;-83
2023/03/24 11:01:46;;;;;;;;;;;17.90;99.90;;;;;;4927035;29;19939;-83
2023/03/24 11:04:15;;;;;;;;;;;17.70;99.90;;;;;;4913173;29;19963;-83
2023/03/24 11:06:54;;;;;;;;;;;17.60;99.90;;;;;;4928769;29;19931;-83
2023/03/24 11:09:25;;;;;;;;;;;17.70;99.90;;;;;;4914256;29;19927;-82
2023/03/24 11:11:52;;;;;;;;;;;17.60;99.90;;;;;;4915269;29;19990;-81
2023/03/24 11:14:26;;;;;;;;;;;17.60;99.90;;;;;;4921116;29;20034;-82
2023/03/24 11:17:02;;;;;;;;;;;17.50;99.90;;;;;;4904940;29;20046;-81
2023/03/24 11:19:31;;;;;;;;;;;17.40;99.90;;;;;;4916987;29;19937;-81
2023/03/24 11:22:02;;;;;;;;;;;17.40;99.90;;;;;;4923535;29;19963;-82
2023/03/24 11:24:30;;;;;;;;;;;17.60;99.90;;;;;;4936558;29;20378;-82
2023/03/24 11:26:59;;;;;;;;;;;17.60;99.90;;;;;;4914957;29;19938;-81
2023/03/24 11:29:30;;;;;;;;;;;17.80;99.90;;;;;;4929033;29;19994;-81
2023/03/24 11:31:59;;;;;;;;;;;17.90;99.90;;;;;;4909631;29;19934;-82
2023/03/24 11:34:33;;;;;;;;;;;17.80;99.90;;;;;;4927418;29;19990;-82
2023/03/24 11:37:01;;;;;;;;;;;17.90;99.90;;;;;;4910533;29;20375;-81
2023/03/24 11:39:30;;;;;;;;;;;17.80;99.90;;;;;;4929222;29;19938;-83
2023/03/24 11:42:03;;;;;;;;;;;17.50;99.90;;;;;;4913311;29;19930;-83
2023/03/24 11:44:33;;;;;;;;;;;17.40;99.90;;;;;;4926854;29;19938;-83
2023/03/24 11:47:03;;;;;;;;;;;17.40;99.90;;;;;;4924147;29;19923;-83
2023/03/24 11:49:32;;;;;;;;;;;17.30;99.90;;;;;;4912604;29;20417;-83
2023/03/24 11:51:59;;;;;;;;;;;17.30;99.90;;;;;;4913045;29;19986;-83
2023/03/24 11:54:30;;;;;;;;;;;17.30;99.90;;;;;;4924068;29;19927;-82
2023/03/24 11:57:06;;;;;;;;;;;17.60;99.90;;;;;;4920331;29;19971;-83
2023/03/24 11:59:38;;;;;;;;;;;17.60;99.90;;;;;;4928435;29;19992;-81
2023/03/24 12:02:10;;;;;;;;;;;18.00;99.90;;;;;;4924204;29;19927;-83
2023/03/24 12:04:45;;;;;;;;;;;18.20;99.90;;;;;;4909195;29;20276;-82
2023/03/24 12:07:27;;;;;;;;;;;18.20;99.90;;;;;;4930655;29;19951;-82
2023/03/24 12:09:57;;;;;;;;;;;18.30;99.90;;;;;;4908482;29;19949;-83
2023/03/24 12:12:31;;;;;;;;;;;18.30;99.90;;;;;;4917346;29;19923;-85
2023/03/24 12:15:23;;;;;;;;;;;18.40;99.90;;;;;;4922174;29;19978;-83
2023/03/24 12:17:57;;;;;;;;;;;18.60;99.90;;;;;;4912511;29;19923;-83
2023/03/24 12:20:28;;;;;;;;;;;19.10;99.90;;;;;;4909416;29;19973;-84
2023/03/24 12:22:59;;;;;;;;;;;19.30;99.90;;;;;;4928855;29;20403;-85
2023/03/24 12:25:40;;;;;;;;;;;19.60;99.90;;;;;;4928604;29;19934;-83
2023/03/24 12:28:28;;;;;;;;;;;19.60;99.90;;;;;;4926641;29;19931;-83
2023/03/24 12:31:03;;;;;;;;;;;19.30;99.90;;;;;;4922564;29;19947;-82
2023/03/24 12:33:41;;;;;;;;;;;18.70;99.90;;;;;;4926843;29;19963;-83
2023/03/24 12:36:30;;;;;;;;;;;18.10;99.90;;;;;;4929074;29;20267;-83
2023/03/24 12:39:05;;;;;;;;;;;18.00;99.90;;;;;;4916476;29;19934;-83
2023/03/24 12:42:06;;;;;;;;;;;17.80;99.90;;;;;;4926205;29;20008;-81
2023/03/24 12:44:57;;;;;;;;;;;18.30;99.90;;;;;;4926114;29;19923;-83
2023/03/24 12:47:30;;;;;;;;;;;18.40;99.90;;;;;;4927445;29;19939;-85
2023/03/24 12:50:04;;;;;;;;;;;18.50;99.90;;;;;;4926929;29;19910;-85
2023/03/24 12:52:43;;;;;;;;;;;18.40;99.90;;;;;;4908200;29;19985;-85
2023/03/24 12:55:13;;;;;;;;;;;18.20;99.90;;;;;;4924571;29;19934;-84
2023/03/24 12:57:42;;;;;;;;;;;18.10;99.90;;;;;;4923094;29;19955;-83
2023/03/24 13:00:13;;;;;;;;;;;18.00;99.90;;;;;;4914922;29;19934;-83
2023/03/24 13:02:43;;;;;;;;;;;17.90;99.90;;;;;;4896503;29;19930;-82
2023/03/24 13:05:19;;;;;;;;;;;17.70;99.90;;;;;;4908500;29;19923;-82
2023/03/24 13:07:53;;;;;;;;;;;17.50;99.90;;;;;;4907987;29;19930;-80
2023/03/24 13:10:22;;;;;;;;;;;17.20;99.90;;;;;;4908564;29;19935;-80
2023/03/24 13:12:52;;;;;;;;;;;17.00;99.90;;;;;;4909594;29;19924;-81
2023/03/24 13:15:29;;;;;;;;;;;16.60;99.90;;;;;;4893483;29;20476;-82
2023/03/24 13:18:00;;;;;;;;;;;16.60;99.90;;;;;;4913964;29;19923;-79
2023/03/24 13:20:32;;;;;;;;;;;16.40;99.90;;;;;;4914849;29;19923;-79
2023/03/24 13:22:59;;;;;;;;;;;16.40;99.90;;;;;;4918539;29;20386;-79
2023/03/24 13:25:32;;;;;;;;;;;16.40;99.90;;;;;;4897021;29;19931;-79
2023/03/24 13:28:04;;;;;;;;;;;16.40;99.90;;;;;;4912237;29;19945;-79
2023/03/24 13:30:33;;;;;;;;;;;16.30;99.90;;;;;;4919992;29;19927;-80
2023/03/24 13:33:02;;;;;;;;;;;16.30;99.90;;;;;;4917111;29;19927;-79
2023/03/24 13:35:38;;;;;;;;;;;15.90;99.90;;;;;;4903685;29;19942;-79
2023/03/24 13:38:11;;;;;;;;;;;15.90;99.90;;;;;;4919210;29;19962;-78
2023/03/24 13:40:40;;;;;;;;;;;15.70;99.90;;;;;;4907327;29;19954;-79
2023/03/24 13:43:11;;;;;;;;;;;15.70;99.90;;;;;;4915880;29;20287;-79
2023/03/24 13:45:40;;;;;;;;;;;15.70;99.90;;;;;;4926129;29;19933;-80
2023/03/24 13:48:21;;;;;;;;;;;15.80;99.90;;;;;;4925390;29;19923;-79
2023/03/24 13:51:03;;;;;;;;;;;16.00;99.90;;;;;;4919707;29;19927;-79
2023/03/24 13:53:36;;;;;;;;;;;16.50;99.90;;;;;;4919848;29;19992;-80
2023/03/24 13:56:05;;;;;;;;;;;16.80;99.90;;;;;;4908641;29;19926;-80
2023/03/24 13:58:47;;;;;;;;;;;17.00;99.90;;;;;;4920072;29;19938;-80
2023/03/24 14:01:33;;;;;;;;;;;17.30;99.90;;;;;;4922790;29;19929;-79
2023/03/24 14:04:20;;;;;;;;;;;17.40;99.90;;;;;;4912886;29;19923;-84
2023/03/24 14:06:53;;;;;;;;;;;17.80;99.90;;;;;;4935348;29;20479;-83
2023/03/24 14:09:22;;;;;;;;;;;17.90;99.90;;;;;;4932808;29;19931;-81
2023/03/24 14:12:09;;;;;;;;;;;18.00;99.90;;;;;;4919338;29;19991;-81
2023/03/24 14:14:58;;;;;;;;;;;18.10;99.90;;;;;;4902749;29;20442;-82
2023/03/24 14:17:31;;;;;;;;;;;17.70;99.90;;;;;;4909973;29;19982;-81
2023/03/24 14:20:16;;;;;;;;;;;17.30;99.90;;;;;;4922972;29;19962;-82
2023/03/24 14:22:47;;;;;;;;;;;17.10;99.90;;;;;;4906363;29;19987;-79
2023/03/24 14:25:29;;;;;;;;;;;16.80;99.90;;;;;;4920197;29;19927;-78
2023/03/24 14:28:19;;;;;;;;;;;16.40;99.90;;;;;;4921598;29;20017;-79
2023/03/24 14:31:00;;;;;;;;;;;15.90;99.90;;;;;;4918593;29;19927;-79
2023/03/24 14:33:28;;;;;;;;;;;15.50;99.90;;;;;;4911387;29;19927;-78
2023/03/24 14:36:00;;;;;;;;;;;15.20;99.90;;;;;;4900351;29;19934;-80
2023/03/24 14:38:34;;;;;;;;;;;15.00;99.90;;;;;;4912678;29;19924;-83
2023/03/24 14:41:06;;;;;;;;;;;14.70;99.90;;;;;;4892400;29;19983;-81
2023/03/24 14:43:48;;;;;;;;;;;14.50;99.90;;;;;;4912493;29;19958;-82
2023/03/24 14:46:31;;;;;;;;;;;14.60;99.90;;;;;;4910103;29;19934;-83
2023/03/24 14:49:01;;;;;;;;;;;15.20;99.90;;;;;;4928896;29;20413;-82
2023/03/24 14:51:36;;;;;;;;;;;15.70;99.90;;;;;;4913030;29;19927;-83
2023/03/24 14:54:09;;;;;;;;;;;15.90;99.90;;;;;;4898615;29;19934;-83
2023/03/24 14:56:41;;;;;;;;;;;15.90;99.90;;;;;;4914564;29;19930;-82